Hannibal, WI (54439)

12:09 PM CDT on September 02, 2014 (GMT -0500)
Rusk County | Change Station
CLOSE
Current Station
Airport
Location: Ladysmith,
Elevation: 1237 ft
Nearby Weather Stations

Elev 1237 ft 45.49 °N, 91.00 °W | Updated 14 minutes ago

Clear
Clear
70 °F
Feels Like 70 °F
N
0
Wind Variable Wind from North

Today
High -- | Low -- °F
--% Chance of Precip.
Yesterday
High -- | Low -- °F
Precip. -- in
6:25 AM 7:38 PM
First Quarter, 53% visible
Pressure 29.90 in
Visibility 10.0 miles
Clouds Clear
Dew Point 55 °F
Humidity 58%
Rainfall 0.00 in
Snow Depth Not available.
UV 7 out of 12
Pollen 8.50 out of 12
Air Quality Not available.
Flu Activity Not available.
METAR KRCX 021655Z AUTO 00000KT 10SM CLR 21/13 A2990 RMK AO2 T02130127

More Conditions Fewer Conditions

Pressure 29.90 in
Visibility 10.0 miles
Clouds Clear
Dew Point 55 °F
Humidity 58%
Rainfall 0.00 in
Snow Depth Not available.
UV 7 out of 12
Pollen 8.50 out of 12
Air Quality Not available.
Flu Activity Not available.
METAR KRCX 021655Z AUTO 00000KT 10SM CLR 21/13 A2990 RMK AO2 T02130127

More Conditions Fewer Conditions

10-Day Weather Forecast

Almanac

Astronomy

Sep. 02, 2014 Rise Set
Actual Time 6:25 AM CDT 7:38 PM CDT
Civil Twilight 5:55 AM CDT 8:08 PM CDT
Nautical Twilight 5:18 AM CDT 8:45 PM CDT
Astronomical Twilight 4:40 AM CDT 9:23 PM CDT
Moon 2:30 PM CDT No Moon Set
Length of Visible Light 14h 13m
Length of Day
13h 12m
Tomorrow will be 3m 4s shorter.
First Quarter, 53% of the Moon is Illuminated
Today
First Quarter
Sep 8
Full
Sep 15
Last Quarter
Sep 24
New
Oct 1
First Quarter

Today's Extremes

State Highs State Lows

Community

WunderPhotos

Upload Photos

1,749,720 photos uploaded!

Nearby

Snow Depth

Station Depth Elevation
No new snow has been reported.

Earthquake Activity

City Distance Mag. Time & Date
No recent earthquake activity has been reported nearby.
Minimum magnitude displayed is 2.5.

Coastal Water Temperatures

Place Temperature
No Stations Reporting

Nearby Weather Stations